createdAt,value
2023-06-06T00:02:10.630Z,16.89
2023-06-06T00:05:02.028Z,16.81
2023-06-06T00:07:50.561Z,16.88
2023-06-06T00:10:39.049Z,16.86
2023-06-06T00:13:28.371Z,16.85
2023-06-06T00:16:18.609Z,16.77
2023-06-06T00:19:07.561Z,16.77
2023-06-06T00:21:56.110Z,16.57
2023-06-06T00:24:44.694Z,16.63
2023-06-06T00:27:33.653Z,16.55
2023-06-06T00:30:22.146Z,16.48
2023-06-06T00:33:12.569Z,16.43
2023-06-06T00:36:01.150Z,16.36
2023-06-06T00:38:49.757Z,16.42
2023-06-06T00:41:38.276Z,16.39
2023-06-06T00:44:26.762Z,16.28
2023-06-06T00:47:15.873Z,16.28
2023-06-06T00:50:07.334Z,16.24
2023-06-06T00:52:56.196Z,15.91
2023-06-06T00:55:45.091Z,15.63
2023-06-06T00:58:36.040Z,15.57
2023-06-06T01:01:30.125Z,15.46
2023-06-06T01:04:19.530Z,15.44
2023-06-06T01:07:10.793Z,15.36
2023-06-06T01:09:59.812Z,15.27
2023-06-06T01:12:57.465Z,15.28
2023-06-06T01:15:50.287Z,15.33
2023-06-06T01:18:39.882Z,15.21
2023-06-06T01:21:36.801Z,15.25
2023-06-06T01:24:28.165Z,15.31
2023-06-06T01:27:16.983Z,15.28
2023-06-06T01:30:06.444Z,15.35
2023-06-06T01:33:01.303Z,15.31
2023-06-06T01:36:00.129Z,15.20
2023-06-06T01:38:54.073Z,15.21
2023-06-06T01:41:42.992Z,15.22
2023-06-06T01:44:32.725Z,15.00
2023-06-06T01:47:21.538Z,14.97
2023-06-06T01:50:11.066Z,14.88
2023-06-06T01:52:59.581Z,14.75
2023-06-06T01:55:50.121Z,14.61
2023-06-06T01:58:38.701Z,14.59
2023-06-06T02:01:27.333Z,14.64
2023-06-06T02:04:15.928Z,14.65
2023-06-06T02:07:04.520Z,14.68
2023-06-06T02:09:54.099Z,14.70
2023-06-06T02:12:44.276Z,14.70
2023-06-06T02:15:33.252Z,14.71
2023-06-06T02:18:21.798Z,14.65
2023-06-06T02:21:10.463Z,14.21
2023-06-06T02:24:02.608Z,14.63
2023-06-06T02:26:51.219Z,14.66
2023-06-06T02:29:41.181Z,14.77
2023-06-06T02:32:31.476Z,14.78
2023-06-06T02:35:20.825Z,14.79
2023-06-06T02:38:09.566Z,14.76
2023-06-06T02:40:58.220Z,14.76
2023-06-06T02:43:46.683Z,14.73
2023-06-06T02:46:37.163Z,14.58
2023-06-06T02:49:25.916Z,14.49
2023-06-06T02:52:15.040Z,14.54
2023-06-06T02:55:03.639Z,14.42
2023-06-06T02:57:52.470Z,14.45
2023-06-06T03:00:41.569Z,14.48
2023-06-06T03:03:32.058Z,14.46
2023-06-06T03:06:22.814Z,14.60
2023-06-06T03:09:11.944Z,14.49
2023-06-06T03:12:00.506Z,14.59
2023-06-06T03:14:56.569Z,14.51
2023-06-06T03:17:46.332Z,14.53
2023-06-06T03:20:36.163Z,14.39
2023-06-06T03:23:24.915Z,14.46
2023-06-06T03:26:13.747Z,14.57
2023-06-06T03:29:02.726Z,14.49
2023-06-06T03:31:52.702Z,14.55
2023-06-06T03:34:42.818Z,14.51
2023-06-06T03:37:32.846Z,14.54
2023-06-06T03:40:21.405Z,14.61
2023-06-06T03:43:09.923Z,14.60
2023-06-06T03:45:58.528Z,14.57
2023-06-06T03:48:47.134Z,14.55
2023-06-06T03:51:36.636Z,14.58
2023-06-06T03:54:26.823Z,14.68
2023-06-06T03:57:16.120Z,14.66
2023-06-06T04:00:08.751Z,14.71
2023-06-06T04:02:57.456Z,14.67
2023-06-06T04:05:48.477Z,14.84
2023-06-06T04:08:37.215Z,14.91
2023-06-06T04:11:27.316Z,14.84
2023-06-06T04:14:15.907Z,14.99
2023-06-06T04:17:04.940Z,14.99
2023-06-06T04:19:53.737Z,15.09
2023-06-06T04:22:42.388Z,15.15
2023-06-06T04:25:30.916Z,15.13
2023-06-06T04:28:21.707Z,15.21
2023-06-06T04:31:10.454Z,15.33
2023-06-06T04:34:02.301Z,15.35
2023-06-06T04:36:52.944Z,15.59
2023-06-06T04:39:42.129Z,15.61
2023-06-06T04:42:33.913Z,15.73
2023-06-06T04:45:24.386Z,15.75
2023-06-06T04:48:14.175Z,15.76
2023-06-06T04:51:02.687Z,15.84
2023-06-06T04:53:56.099Z,15.94
2023-06-06T04:56:46.495Z,15.81
2023-06-06T04:59:35.533Z,15.84
2023-06-06T05:02:29.441Z,15.94
2023-06-06T05:05:19.337Z,15.96
2023-06-06T05:08:07.857Z,16.06
2023-06-06T05:10:56.631Z,16.20
2023-06-06T05:13:45.394Z,16.40
2023-06-06T05:16:34.173Z,16.38
2023-06-06T05:19:24.051Z,16.51
2023-06-06T05:22:12.617Z,16.55
2023-06-06T05:25:01.146Z,16.60
2023-06-06T05:27:52.795Z,16.70
2023-06-06T05:30:41.476Z,16.72
2023-06-06T05:33:31.826Z,16.94
2023-06-06T05:36:21.812Z,17.04
2023-06-06T05:39:11.535Z,17.10
2023-06-06T05:42:00.002Z,17.09
2023-06-06T05:44:51.560Z,17.14
2023-06-06T05:47:40.425Z,16.89
2023-06-06T05:50:29.902Z,17.31
2023-06-06T05:53:19.715Z,17.50
2023-06-06T05:56:08.758Z,17.66
2023-06-06T05:58:57.191Z,17.69
2023-06-06T06:01:48.594Z,17.72
2023-06-06T06:04:37.409Z,17.84
2023-06-06T06:07:29.088Z,17.55
2023-06-06T06:10:19.440Z,17.89
2023-06-06T06:13:08.028Z,18.22
2023-06-06T06:15:56.577Z,18.10
2023-06-06T06:18:45.133Z,18.36
2023-06-06T06:21:33.672Z,18.26
2023-06-06T06:24:22.133Z,18.39
2023-06-06T06:27:12.042Z,18.53
2023-06-06T06:30:02.776Z,18.74
2023-06-06T06:32:51.948Z,18.82
2023-06-06T06:35:41.302Z,19.14
2023-06-06T06:38:29.893Z,19.29
2023-06-06T06:41:18.681Z,19.55
2023-06-06T06:44:08.838Z,19.56
2023-06-06T06:46:57.472Z,19.43
2023-06-06T06:49:47.473Z,19.68
2023-06-06T06:52:37.136Z,19.65
2023-06-06T06:55:27.007Z,19.72
2023-06-06T06:58:23.971Z,19.99
2023-06-06T07:01:15.566Z,20.09
2023-06-06T07:04:05.567Z,19.96
2023-06-06T07:06:54.233Z,20.27
2023-06-06T07:09:44.675Z,20.62
2023-06-06T07:12:33.225Z,20.50
2023-06-06T07:15:22.158Z,20.93
2023-06-06T07:18:13.989Z,21.28
2023-06-06T07:21:02.531Z,21.27
2023-06-06T07:23:51.284Z,21.43
2023-06-06T07:26:39.921Z,21.33
2023-06-06T07:29:29.725Z,21.49
2023-06-06T07:32:18.293Z,21.77
2023-06-06T07:35:11.892Z,21.94
2023-06-06T07:38:01.328Z,22.19
2023-06-06T07:40:50.064Z,22.13
2023-06-06T07:43:38.583Z,21.91
2023-06-06T07:46:27.194Z,22.17
2023-06-06T07:49:15.804Z,22.01
2023-06-06T07:52:06.390Z,22.14
2023-06-06T07:54:54.918Z,22.48
2023-06-06T07:57:46.391Z,22.40
2023-06-06T08:03:23.166Z,22.50
2023-06-06T08:06:11.978Z,22.60
2023-06-06T08:09:02.242Z,22.54
2023-06-06T08:11:50.755Z,23.02
2023-06-06T08:14:39.548Z,23.02
2023-06-06T08:17:28.351Z,23.04
2023-06-06T08:20:18.231Z,23.01
2023-06-06T08:23:06.974Z,23.10
2023-06-06T08:25:58.919Z,23.39
2023-06-06T08:28:47.485Z,23.67
2023-06-06T08:31:36.253Z,23.50
2023-06-06T08:34:24.963Z,23.64
2023-06-06T08:37:13.500Z,23.82
2023-06-06T08:40:02.250Z,24.18
2023-06-06T08:42:53.464Z,23.64
2023-06-06T08:45:45.863Z,23.40
2023-06-06T08:48:36.227Z,23.50
2023-06-06T08:51:27.049Z,24.03
2023-06-06T08:54:15.864Z,23.96
2023-06-06T08:57:09.360Z,24.41
2023-06-06T09:00:01.868Z,24.15
2023-06-06T09:02:50.701Z,23.65
2023-06-06T09:05:40.044Z,23.90
2023-06-06T09:08:28.708Z,23.69
2023-06-06T09:11:18.389Z,23.93
2023-06-06T09:14:07.375Z,24.07
2023-06-06T09:16:57.364Z,24.51
2023-06-06T09:19:47.018Z,24.24
2023-06-06T09:22:39.206Z,24.73
2023-06-06T09:25:28.837Z,24.72
2023-06-06T09:28:17.498Z,24.74
2023-06-06T09:31:24.741Z,24.98
2023-06-06T09:34:14.849Z,24.45
2023-06-06T09:37:06.534Z,25.10
2023-06-06T09:40:13.325Z,25.42
2023-06-06T09:43:01.804Z,25.59
2023-06-06T09:45:52.049Z,25.90
2023-06-06T09:48:40.960Z,25.57
2023-06-06T09:51:32.742Z,25.65
2023-06-06T09:54:24.172Z,25.54
2023-06-06T09:57:15.811Z,25.01
2023-06-06T10:00:11.426Z,25.11
2023-06-06T10:03:02.507Z,25.22
2023-06-06T10:05:52.106Z,25.42
2023-06-06T10:08:43.190Z,25.97
2023-06-06T10:11:31.754Z,26.26
2023-06-06T10:14:20.579Z,26.19
2023-06-06T10:17:09.196Z,25.78
2023-06-06T10:19:58.271Z,25.87
2023-06-06T10:22:46.963Z,26.36
2023-06-06T10:25:38.561Z,26.40
2023-06-06T10:28:30.321Z,26.45
2023-06-06T10:31:26.485Z,25.93
2023-06-06T10:34:18.599Z,26.41
2023-06-06T10:37:17.229Z,26.18
2023-06-06T10:40:09.596Z,25.89
2023-06-06T10:42:59.864Z,25.98
2023-06-06T10:45:52.200Z,26.19
2023-06-06T10:48:41.515Z,26.31
2023-06-06T10:51:35.772Z,26.44
2023-06-06T10:54:29.648Z,26.69
2023-06-06T10:57:18.289Z,26.73
2023-06-06T11:00:13.415Z,27.13
2023-06-06T11:03:06.423Z,27.63
2023-06-06T11:06:11.070Z,27.57
2023-06-06T11:09:01.627Z,27.14
2023-06-06T11:11:51.370Z,27.64
2023-06-06T11:14:57.419Z,27.76
2023-06-06T11:17:48.234Z,27.72
2023-06-06T11:20:41.582Z,27.85
2023-06-06T11:23:40.434Z,27.80
2023-06-06T11:26:29.544Z,27.18
2023-06-06T11:29:18.158Z,27.71
2023-06-06T11:32:12.055Z,27.35
2023-06-06T11:35:09.174Z,27.35
2023-06-06T11:37:57.967Z,27.18
2023-06-06T11:40:46.679Z,27.16
2023-06-06T11:43:35.195Z,27.37
2023-06-06T11:46:23.805Z,27.76
2023-06-06T11:49:12.864Z,28.08
2023-06-06T11:52:04.126Z,28.19
2023-06-06T11:55:05.771Z,28.63
2023-06-06T11:57:56.900Z,28.67
2023-06-06T12:00:46.157Z,28.14
2023-06-06T12:03:35.794Z,28.31
2023-06-06T12:06:28.958Z,27.68
2023-06-06T12:09:20.318Z,27.89
2023-06-06T12:12:09.429Z,28.02
2023-06-06T12:14:58.461Z,27.89
2023-06-06T12:17:47.179Z,28.06
2023-06-06T12:20:35.787Z,27.85
2023-06-06T12:23:28.179Z,27.12
2023-06-06T12:26:19.671Z,27.52
2023-06-06T12:29:10.700Z,28.19
2023-06-06T12:32:15.490Z,27.44
2023-06-06T12:35:04.568Z,28.46
2023-06-06T12:37:53.132Z,28.87
2023-06-06T12:40:41.807Z,29.18
2023-06-06T12:43:32.075Z,28.50
2023-06-06T12:46:20.965Z,27.52
2023-06-06T12:49:10.035Z,27.41
2023-06-06T12:51:58.798Z,27.46
2023-06-06T12:54:47.323Z,27.37
2023-06-06T12:57:36.296Z,27.18
2023-06-06T13:00:26.947Z,27.02
2023-06-06T13:03:16.389Z,26.86
2023-06-06T13:06:05.407Z,26.66
2023-06-06T13:08:54.308Z,26.58
2023-06-06T13:12:00.696Z,26.49
2023-06-06T13:14:49.238Z,26.63
2023-06-06T13:17:39.289Z,26.61
2023-06-06T13:20:28.164Z,26.67
2023-06-06T13:23:16.637Z,26.43
2023-06-06T13:26:05.476Z,26.58
2023-06-06T13:28:55.039Z,27.05
2023-06-06T13:31:44.344Z,27.47
2023-06-06T13:34:34.343Z,27.77
2023-06-06T13:37:23.725Z,28.16
2023-06-06T13:40:13.019Z,28.09
2023-06-06T13:43:01.692Z,27.98
2023-06-06T13:45:50.794Z,28.21
2023-06-06T13:48:40.082Z,28.13
2023-06-06T13:51:30.745Z,28.26
2023-06-06T13:54:19.588Z,28.42
2023-06-06T13:57:13.632Z,28.53
2023-06-06T14:00:02.570Z,28.48
2023-06-06T14:02:53.075Z,28.38
2023-06-06T14:05:42.072Z,28.49
2023-06-06T14:08:32.388Z,28.32
2023-06-06T14:11:24.076Z,28.08
2023-06-06T14:14:12.750Z,28.34
2023-06-06T14:17:01.802Z,28.12
2023-06-06T14:19:54.746Z,27.73
2023-06-06T14:22:44.367Z,28.04
2023-06-06T14:25:34.524Z,27.87
2023-06-06T14:28:23.086Z,27.64
2023-06-06T14:31:11.920Z,27.67
2023-06-06T14:34:00.992Z,27.28
2023-06-06T14:36:49.613Z,27.12
2023-06-06T14:39:38.758Z,26.82
2023-06-06T14:42:31.448Z,26.62
2023-06-06T14:45:20.196Z,26.39
2023-06-06T14:48:08.831Z,26.22
2023-06-06T14:50:57.334Z,26.05
2023-06-06T14:53:46.093Z,26.15
2023-06-06T14:56:34.593Z,26.46
2023-06-06T14:59:25.482Z,26.70
2023-06-06T15:02:14.531Z,26.52
2023-06-06T15:05:03.332Z,26.68
2023-06-06T15:07:51.958Z,26.51
2023-06-06T15:10:40.512Z,26.63
2023-06-06T15:13:29.061Z,26.82
2023-06-06T15:16:19.164Z,26.95
2023-06-06T15:19:07.693Z,27.04
2023-06-06T15:21:57.548Z,27.12
2023-06-06T15:24:46.329Z,27.00
2023-06-06T15:27:35.076Z,26.91
2023-06-06T15:30:23.680Z,27.03
2023-06-06T15:33:13.958Z,27.21
2023-06-06T15:36:03.260Z,27.26
2023-06-06T15:38:51.992Z,27.31
2023-06-06T15:41:40.604Z,27.22
2023-06-06T15:44:32.368Z,27.02
2023-06-06T15:47:22.215Z,27.17
2023-06-06T15:50:12.601Z,27.20
2023-06-06T15:53:01.337Z,27.14
2023-06-06T15:55:50.144Z,27.10
2023-06-06T15:58:38.867Z,26.91
2023-06-06T16:01:29.979Z,26.84
2023-06-06T16:04:18.610Z,26.41
2023-06-06T16:07:09.130Z,26.23
2023-06-06T16:09:58.029Z,26.42
2023-06-06T16:12:48.499Z,26.36
2023-06-06T16:15:39.614Z,26.39
2023-06-06T16:18:28.134Z,26.38
2023-06-06T16:21:16.987Z,26.35
2023-06-06T16:24:08.097Z,26.54
2023-06-06T16:26:56.700Z,26.57
2023-06-06T16:29:45.258Z,26.34
2023-06-06T16:32:33.962Z,26.39
2023-06-06T16:35:22.522Z,26.33
2023-06-06T16:38:11.181Z,26.42
2023-06-06T16:41:02.864Z,26.30
2023-06-06T16:43:51.605Z,26.09
2023-06-06T16:46:40.269Z,26.33
2023-06-06T16:49:34.574Z,26.31
2023-06-06T16:52:23.666Z,26.20
2023-06-06T16:55:12.238Z,26.06
2023-06-06T16:58:04.482Z,25.93
2023-06-06T17:00:53.256Z,25.92
2023-06-06T17:03:41.781Z,25.93
2023-06-06T17:06:30.393Z,25.86
2023-06-06T17:09:21.629Z,25.77
2023-06-06T17:12:11.420Z,25.75
2023-06-06T17:15:01.391Z,25.50
2023-06-06T17:17:50.032Z,25.51
2023-06-06T17:20:39.886Z,25.44
2023-06-06T17:23:28.469Z,25.38
2023-06-06T17:26:17.012Z,25.36
2023-06-06T17:29:05.661Z,25.30
2023-06-06T17:31:55.674Z,25.25
2023-06-06T17:34:44.228Z,25.40
2023-06-06T17:37:33.378Z,25.20
2023-06-06T17:40:22.435Z,25.12
2023-06-06T17:43:11.382Z,25.14
2023-06-06T17:45:59.920Z,24.99
2023-06-06T17:48:51.912Z,25.03
2023-06-06T17:51:41.226Z,25.01
2023-06-06T17:54:31.450Z,24.99
2023-06-06T17:57:21.728Z,25.00
2023-06-06T18:00:12.733Z,24.78
2023-06-06T18:03:01.389Z,24.96
2023-06-06T18:05:51.438Z,24.89
2023-06-06T18:08:40.228Z,24.86
2023-06-06T18:11:28.728Z,24.84
2023-06-06T18:14:17.299Z,24.74
2023-06-06T18:17:06.375Z,24.64
2023-06-06T18:19:55.395Z,24.67
2023-06-06T18:22:45.345Z,24.56
2023-06-06T18:25:34.554Z,24.50
2023-06-06T18:28:23.216Z,24.43
2023-06-06T18:31:21.098Z,24.38
2023-06-06T18:34:17.792Z,24.25
2023-06-06T18:37:07.276Z,24.19
2023-06-06T18:39:57.865Z,24.01
2023-06-06T18:42:46.687Z,23.90
2023-06-06T18:45:36.248Z,23.89
2023-06-06T18:48:25.780Z,23.78
2023-06-06T18:51:14.827Z,23.56
2023-06-06T18:54:03.516Z,23.60
2023-06-06T18:56:53.560Z,23.37
2023-06-06T18:59:42.234Z,23.43
2023-06-06T19:02:31.028Z,23.38
2023-06-06T19:05:19.676Z,23.30
2023-06-06T19:08:08.338Z,22.64
2023-06-06T19:10:58.257Z,23.12
2023-06-06T19:13:48.460Z,23.04
2023-06-06T19:16:37.021Z,22.93
2023-06-06T19:19:27.639Z,22.82
2023-06-06T19:22:18.386Z,22.65
2023-06-06T19:25:08.481Z,22.63
2023-06-06T19:27:57.107Z,22.49
2023-06-06T19:30:47.770Z,22.39
2023-06-06T19:33:36.356Z,22.26
2023-06-06T19:36:26.596Z,22.14
2023-06-06T19:39:15.544Z,22.06
2023-06-06T19:42:04.229Z,21.88
2023-06-06T19:44:53.288Z,21.75
2023-06-06T19:47:45.559Z,21.65
2023-06-06T19:50:34.304Z,21.51
2023-06-06T19:53:22.886Z,21.39
2023-06-06T19:56:11.727Z,21.18
2023-06-06T19:59:00.990Z,21.04
2023-06-06T20:01:49.867Z,20.95
2023-06-06T20:04:42.710Z,19.59
2023-06-06T20:07:31.214Z,20.77
2023-06-06T20:10:22.163Z,20.42
2023-06-06T20:13:11.021Z,20.39
2023-06-06T20:15:59.751Z,20.37
2023-06-06T20:18:48.297Z,20.11
2023-06-06T20:21:38.801Z,20.01
2023-06-06T20:24:27.564Z,19.91
2023-06-06T20:27:17.300Z,19.70
2023-06-06T20:30:07.840Z,19.54
2023-06-06T20:32:56.586Z,19.49
2023-06-06T20:35:45.135Z,19.41
2023-06-06T20:38:35.085Z,19.33
2023-06-06T20:41:24.116Z,19.25
2023-06-06T20:44:12.673Z,19.20
2023-06-06T20:47:03.132Z,18.68
2023-06-06T20:49:51.754Z,19.10
2023-06-06T20:52:41.661Z,19.10
2023-06-06T20:55:31.947Z,18.98
2023-06-06T20:58:21.122Z,18.67
2023-06-06T21:01:09.654Z,18.84
2023-06-06T21:03:58.179Z,18.71
2023-06-06T21:06:46.708Z,18.60
2023-06-06T21:09:35.270Z,18.53
2023-06-06T21:12:25.210Z,18.46
2023-06-06T21:15:13.879Z,18.43
2023-06-06T21:18:02.490Z,18.53
2023-06-06T21:20:51.334Z,18.40
2023-06-06T21:23:39.912Z,18.25
2023-06-06T21:26:28.986Z,18.08
2023-06-06T21:29:19.180Z,18.12
2023-06-06T21:32:08.378Z,18.05
2023-06-06T21:34:56.924Z,17.93
2023-06-06T21:37:45.477Z,17.85
2023-06-06T21:40:34.974Z,17.63
2023-06-06T21:43:23.771Z,17.78
2023-06-06T21:46:13.645Z,17.75
2023-06-06T21:49:02.353Z,17.79
2023-06-06T21:51:50.863Z,17.77
2023-06-06T21:54:39.370Z,17.74
2023-06-06T21:57:27.858Z,17.64
2023-06-06T22:00:18.150Z,17.64
2023-06-06T22:03:08.185Z,17.63
2023-06-06T22:05:56.865Z,17.54
2023-06-06T22:08:45.422Z,17.54
2023-06-06T22:11:33.940Z,17.44
2023-06-06T22:14:22.435Z,17.33
2023-06-06T22:17:11.038Z,17.23
2023-06-06T22:20:01.391Z,17.21
2023-06-06T22:22:50.126Z,17.21
2023-06-06T22:25:38.793Z,17.09
2023-06-06T22:28:27.387Z,17.04
2023-06-06T22:31:15.996Z,16.95
2023-06-06T22:34:04.873Z,16.87
2023-06-06T22:36:54.758Z,16.76
2023-06-06T22:39:43.267Z,16.71
2023-06-06T22:42:31.747Z,16.68
2023-06-06T22:45:20.966Z,16.59
2023-06-06T22:48:09.583Z,16.57
2023-06-06T22:50:58.136Z,16.56
2023-06-06T22:53:48.670Z,16.52
2023-06-06T22:56:37.231Z,16.41
2023-06-06T22:59:25.843Z,16.27
2023-06-06T23:02:14.384Z,16.26
2023-06-06T23:05:03.163Z,16.33
2023-06-06T23:07:51.656Z,16.31
2023-06-06T23:10:41.773Z,16.10
2023-06-06T23:13:30.384Z,16.05
2023-06-06T23:16:19.011Z,16.12
2023-06-06T23:19:08.714Z,16.10
2023-06-06T23:21:57.210Z,16.18
2023-06-06T23:24:46.251Z,16.20
2023-06-06T23:27:36.103Z,16.12
2023-06-06T23:30:24.975Z,16.13
2023-06-06T23:33:13.482Z,16.09
2023-06-06T23:36:02.442Z,15.98
2023-06-06T23:38:50.917Z,15.95
2023-06-06T23:41:39.414Z,15.94
2023-06-06T23:44:29.305Z,15.94
2023-06-06T23:47:18.431Z,15.89
2023-06-06T23:50:08.247Z,15.90
2023-06-06T23:52:56.791Z,15.83
2023-06-06T23:55:46.468Z,15.74
2023-06-06T23:58:35.005Z,15.75
